Corpus Christi, TX

11:32 CST le 06 Mars 2015 (GMT -0600)
Corpus Christi International | Change Station
CLOSE
Current Station
Aéroport
Location: Corpus Christi,
Altitude: 43 ft
Stations météo à proximité

Alt. 43 ft 27.77 °N, 97.51 °W | Updated 41 minutes ago

Couvert
Couvert
44 ° F
Paraît 37 ° F
N
15
Vent Variable Vent de NE

Aujourd'hui
Haut(e) -- | Bas -- ° F
--% Risque de précip.
Hier
Haut(e) -- | Bas -- ° F
Precip. -- pouce
6:49 AM 6:33 PM
Pleine lune, 99% visible
Pression 30.62 pouce
Visibilité 10.0 Miles terrestres
Nuages Peu 2600 ft
Couvert 8500 ft
Refroidissement éolien 37 ° F
Point de rosée 22 ° F
Humidité 42%
Précipitations 0.00 pouce
Profondeur de la couche neigeuse Non disponible.
UV 2 sur 12
Pollen 9.10 sur 12
Qualité de l'air Non disponible.
Flu Activity Non disponible.
METAR KCRP 061651Z 05013KT 10SM FEW026 OVC085 07/M06 A3062 RMK AO2 SLP367 T00671056

More Conditions Fewer Conditions

Pression 30.62 pouce
Visibilité 10.0 Miles terrestres
Nuages Peu 2600 ft
Couvert 8500 ft
Refroidissement éolien 37 ° F
Point de rosée 22 ° F
Humidité 42%
Précipitations 0.00 pouce
Profondeur de la couche neigeuse Non disponible.
UV 2 sur 12
Pollen 9.10 sur 12
Qualité de l'air Non disponible.
Flu Activity Non disponible.
METAR KCRP 061651Z 05013KT 10SM FEW026 OVC085 07/M06 A3062 RMK AO2 SLP367 T00671056

More Conditions Fewer Conditions

10-Day Weather Forecast

Almanac

Astronomie

Mar. 06, 2015 Lever Coucher
Temps réel
Crépuscule civil
Crépuscule nautique
Crépuscule astronomique
Lune
Durée de lumière visible
Longueur du jour
Tomorrow will be .
, % of the Moon is Illuminated

Extrêmes aujourd'hui

State Highs State Lows

Community

WunderPhotos

Upload Photos

1,803,345 Photos téléchargées !

WunderBlogs® & News

Nearby

Qualité de l'air

  Qualité de l'air Indice de la qualité de l'air Polluant
Not available.

Épaisseur de neige

Station Depth Altitude

Activité sismique

Ville Distance Mag. Time & Date
Minimum magnitude displayed is 2.5.

Températures des eaux côtières

Lieu Température

Stations météo à proximité